sensor_id;sensor_type;location;lat;lon;timestamp;temperature;humidity
40932;DHT22;36257;46.052;12.540;2022-10-16T00:01:12;16.50;94.50
40932;DHT22;36257;46.052;12.540;2022-10-16T00:03:42;16.50;94.20
40932;DHT22;36257;46.052;12.540;2022-10-16T00:06:10;16.50;94.30
40932;DHT22;36257;46.052;12.540;2022-10-16T00:08:36;16.60;94.30
40932;DHT22;36257;46.052;12.540;2022-10-16T00:11:05;16.50;94.30
40932;DHT22;36257;46.052;12.540;2022-10-16T00:13:32;16.50;94.50
40932;DHT22;36257;46.052;12.540;2022-10-16T00:15:59;16.50;94.60
40932;DHT22;36257;46.052;12.540;2022-10-16T00:18:26;16.40;94.80
40932;DHT22;36257;46.052;12.540;2022-10-16T00:20:52;16.40;94.90
40932;DHT22;36257;46.052;12.540;2022-10-16T00:23:18;16.40;95.00
40932;DHT22;36257;46.052;12.540;2022-10-16T00:25:43;16.40;95.00
40932;DHT22;36257;46.052;12.540;2022-10-16T00:28:09;16.40;95.00
40932;DHT22;36257;46.052;12.540;2022-10-16T00:30:38;16.30;95.10
40932;DHT22;36257;46.052;12.540;2022-10-16T00:33:03;16.30;95.30
40932;DHT22;36257;46.052;12.540;2022-10-16T00:35:30;16.30;95.40
40932;DHT22;36257;46.052;12.540;2022-10-16T00:37:56;16.30;95.50
40932;DHT22;36257;46.052;12.540;2022-10-16T00:40:22;16.40;95.20
40932;DHT22;36257;46.052;12.540;2022-10-16T00:42:47;16.30;95.00
40932;DHT22;36257;46.052;12.540;2022-10-16T00:45:13;16.30;94.70
40932;DHT22;36257;46.052;12.540;2022-10-16T00:47:46;16.30;94.90
40932;DHT22;36257;46.052;12.540;2022-10-16T00:52:50;16.20;95.20
40932;DHT22;36257;46.052;12.540;2022-10-16T00:55:16;16.10;95.50
40932;DHT22;36257;46.052;12.540;2022-10-16T00:57:43;16.10;95.50
40932;DHT22;36257;46.052;12.540;2022-10-16T01:00:10;16.10;95.70
40932;DHT22;36257;46.052;12.540;2022-10-16T01:02:36;16.10;95.60
40932;DHT22;36257;46.052;12.540;2022-10-16T01:05:02;16.10;95.90
40932;DHT22;36257;46.052;12.540;2022-10-16T01:07:58;16.10;95.90
40932;DHT22;36257;46.052;12.540;2022-10-16T01:11:01;16.00;96.00
40932;DHT22;36257;46.052;12.540;2022-10-16T01:13:42;16.00;96.20
40932;DHT22;36257;46.052;12.540;2022-10-16T01:16:30;16.00;96.30
40932;DHT22;36257;46.052;12.540;2022-10-16T01:19:10;15.90;96.20
40932;DHT22;36257;46.052;12.540;2022-10-16T01:21:43;15.90;96.40
40932;DHT22;36257;46.052;12.540;2022-10-16T01:27:24;15.90;96.20
40932;DHT22;36257;46.052;12.540;2022-10-16T01:29:59;15.90;96.30
40932;DHT22;36257;46.052;12.540;2022-10-16T01:32:42;15.90;96.30
40932;DHT22;36257;46.052;12.540;2022-10-16T01:35:19;15.80;96.90
40932;DHT22;36257;46.052;12.540;2022-10-16T01:38:10;15.80;97.00
40932;DHT22;36257;46.052;12.540;2022-10-16T01:40:36;15.80;97.30
40932;DHT22;36257;46.052;12.540;2022-10-16T01:43:07;15.80;97.10
40932;DHT22;36257;46.052;12.540;2022-10-16T01:45:34;15.80;97.30
40932;DHT22;36257;46.052;12.540;2022-10-16T01:48:02;15.80;97.40
40932;DHT22;36257;46.052;12.540;2022-10-16T01:50:32;15.80;97.50
40932;DHT22;36257;46.052;12.540;2022-10-16T01:53:00;15.80;97.50
40932;DHT22;36257;46.052;12.540;2022-10-16T01:55:32;15.80;97.30
40932;DHT22;36257;46.052;12.540;2022-10-16T01:58:01;15.80;97.00
40932;DHT22;36257;46.052;12.540;2022-10-16T02:00:29;15.80;97.20
40932;DHT22;36257;46.052;12.540;2022-10-16T02:02:58;15.80;97.20
40932;DHT22;36257;46.052;12.540;2022-10-16T02:06:11;15.80;97.00
40932;DHT22;36257;46.052;12.540;2022-10-16T02:08:18;15.80;97.10
40932;DHT22;36257;46.052;12.540;2022-10-16T02:10:44;15.80;96.80
40932;DHT22;36257;46.052;12.540;2022-10-16T02:13:15;15.70;97.00
40932;DHT22;36257;46.052;12.540;2022-10-16T02:15:42;15.60;97.10
40932;DHT22;36257;46.052;12.540;2022-10-16T02:18:09;15.60;97.00
40932;DHT22;36257;46.052;12.540;2022-10-16T02:20:37;15.70;97.00
40932;DHT22;36257;46.052;12.540;2022-10-16T02:23:05;15.60;97.00
40932;DHT22;36257;46.052;12.540;2022-10-16T02:25:37;15.60;96.90
40932;DHT22;36257;46.052;12.540;2022-10-16T02:28:27;15.40;97.70
40932;DHT22;36257;46.052;12.540;2022-10-16T02:30:59;15.20;98.00
40932;DHT22;36257;46.052;12.540;2022-10-16T02:33:27;15.20;98.20
40932;DHT22;36257;46.052;12.540;2022-10-16T02:35:54;15.10;98.40
40932;DHT22;36257;46.052;12.540;2022-10-16T02:38:22;15.10;98.50
40932;DHT22;36257;46.052;12.540;2022-10-16T02:40:48;15.10;98.70
40932;DHT22;36257;46.052;12.540;2022-10-16T02:43:14;15.00;98.90
40932;DHT22;36257;46.052;12.540;2022-10-16T02:45:40;15.00;98.80
40932;DHT22;36257;46.052;12.540;2022-10-16T02:48:06;15.00;98.80
40932;DHT22;36257;46.052;12.540;2022-10-16T02:50:31;14.90;99.20
40932;DHT22;36257;46.052;12.540;2022-10-16T02:52:57;15.00;99.00
40932;DHT22;36257;46.052;12.540;2022-10-16T02:55:23;14.90;98.80
40932;DHT22;36257;46.052;12.540;2022-10-16T02:57:48;14.80;99.00
40932;DHT22;36257;46.052;12.540;2022-10-16T03:00:16;14.80;99.20
40932;DHT22;36257;46.052;12.540;2022-10-16T03:02:42;14.70;99.30
40932;DHT22;36257;46.052;12.540;2022-10-16T03:05:08;14.70;99.10
40932;DHT22;36257;46.052;12.540;2022-10-16T03:07:34;14.70;99.00
40932;DHT22;36257;46.052;12.540;2022-10-16T03:10:00;14.70;99.00
40932;DHT22;36257;46.052;12.540;2022-10-16T03:12:26;14.70;98.70
40932;DHT22;36257;46.052;12.540;2022-10-16T03:14:52;14.60;98.80
40932;DHT22;36257;46.052;12.540;2022-10-16T03:17:18;14.60;98.80
40932;DHT22;36257;46.052;12.540;2022-10-16T03:19:44;14.50;98.80
40932;DHT22;36257;46.052;12.540;2022-10-16T03:22:09;14.50;98.60
40932;DHT22;36257;46.052;12.540;2022-10-16T03:24:35;14.50;98.60
40932;DHT22;36257;46.052;12.540;2022-10-16T03:27:00;14.50;98.50
40932;DHT22;36257;46.052;12.540;2022-10-16T03:29:26;14.50;98.50
40932;DHT22;36257;46.052;12.540;2022-10-16T03:31:55;14.50;98.40
40932;DHT22;36257;46.052;12.540;2022-10-16T03:34:20;14.50;98.30
40932;DHT22;36257;46.052;12.540;2022-10-16T03:36:46;14.50;98.00
40932;DHT22;36257;46.052;12.540;2022-10-16T03:39:12;14.50;98.10
40932;DHT22;36257;46.052;12.540;2022-10-16T03:41:37;14.50;98.10
40932;DHT22;36257;46.052;12.540;2022-10-16T03:44:03;14.50;98.10
40932;DHT22;36257;46.052;12.540;2022-10-16T03:46:29;14.40;97.90
40932;DHT22;36257;46.052;12.540;2022-10-16T03:48:55;14.40;98.10
40932;DHT22;36257;46.052;12.540;2022-10-16T03:51:20;14.40;98.10
40932;DHT22;36257;46.052;12.540;2022-10-16T03:53:46;14.40;97.90
40932;DHT22;36257;46.052;12.540;2022-10-16T03:56:12;14.40;98.10
40932;DHT22;36257;46.052;12.540;2022-10-16T03:58:37;14.30;98.10
40932;DHT22;36257;46.052;12.540;2022-10-16T04:01:03;14.30;98.10
40932;DHT22;36257;46.052;12.540;2022-10-16T04:03:29;14.30;98.30
40932;DHT22;36257;46.052;12.540;2022-10-16T04:05:54;14.20;98.40
40932;DHT22;36257;46.052;12.540;2022-10-16T04:08:20;14.20;98.30
40932;DHT22;36257;46.052;12.540;2022-10-16T04:10:46;14.20;98.40
40932;DHT22;36257;46.052;12.540;2022-10-16T04:13:12;14.20;98.30
40932;DHT22;36257;46.052;12.540;2022-10-16T04:15:37;14.20;98.20
40932;DHT22;36257;46.052;12.540;2022-10-16T04:18:03;14.20;98.30
40932;DHT22;36257;46.052;12.540;2022-10-16T04:20:29;14.30;98.10
40932;DHT22;36257;46.052;12.540;2022-10-16T04:22:55;14.20;98.00
40932;DHT22;36257;46.052;12.540;2022-10-16T04:25:21;14.10;98.30
40932;DHT22;36257;46.052;12.540;2022-10-16T04:27:47;14.00;98.90
40932;DHT22;36257;46.052;12.540;2022-10-16T04:30:13;14.00;99.10
40932;DHT22;36257;46.052;12.540;2022-10-16T04:32:39;14.00;99.30
40932;DHT22;36257;46.052;12.540;2022-10-16T04:35:05;14.00;99.20
40932;DHT22;36257;46.052;12.540;2022-10-16T04:37:31;14.10;98.80
40932;DHT22;36257;46.052;12.540;2022-10-16T04:39:57;14.10;98.70
40932;DHT22;36257;46.052;12.540;2022-10-16T04:42:22;14.10;98.60
40932;DHT22;36257;46.052;12.540;2022-10-16T04:44:48;14.10;98.50
40932;DHT22;36257;46.052;12.540;2022-10-16T04:47:14;14.20;98.30
40932;DHT22;36257;46.052;12.540;2022-10-16T04:49:39;14.20;98.30
40932;DHT22;36257;46.052;12.540;2022-10-16T04:52:05;14.10;98.50
40932;DHT22;36257;46.052;12.540;2022-10-16T04:54:31;14.10;98.30
40932;DHT22;36257;46.052;12.540;2022-10-16T04:56:57;14.10;98.30
40932;DHT22;36257;46.052;12.540;2022-10-16T04:59:23;14.00;98.50
40932;DHT22;36257;46.052;12.540;2022-10-16T05:01:51;14.10;98.30
40932;DHT22;36257;46.052;12.540;2022-10-16T05:04:17;14.00;98.50
40932;DHT22;36257;46.052;12.540;2022-10-16T05:06:43;13.90;98.90
40932;DHT22;36257;46.052;12.540;2022-10-16T05:09:09;13.90;99.10
40932;DHT22;36257;46.052;12.540;2022-10-16T05:11:35;13.90;99.10
40932;DHT22;36257;46.052;12.540;2022-10-16T05:14:01;13.90;99.10
40932;DHT22;36257;46.052;12.540;2022-10-16T05:16:27;14.00;98.90
40932;DHT22;36257;46.052;12.540;2022-10-16T05:18:52;13.90;98.90
40932;DHT22;36257;46.052;12.540;2022-10-16T05:21:18;13.90;98.90
40932;DHT22;36257;46.052;12.540;2022-10-16T05:23:44;14.00;98.80
40932;DHT22;36257;46.052;12.540;2022-10-16T05:26:10;14.00;98.70
40932;DHT22;36257;46.052;12.540;2022-10-16T05:28:35;14.00;98.40
40932;DHT22;36257;46.052;12.540;2022-10-16T05:31:05;14.00;98.50
40932;DHT22;36257;46.052;12.540;2022-10-16T05:33:32;14.00;98.50
40932;DHT22;36257;46.052;12.540;2022-10-16T05:36:04;14.00;98.40
40932;DHT22;36257;46.052;12.540;2022-10-16T05:38:30;14.00;98.30
40932;DHT22;36257;46.052;12.540;2022-10-16T05:40:55;14.00;98.10
40932;DHT22;36257;46.052;12.540;2022-10-16T05:43:22;14.00;98.00
40932;DHT22;36257;46.052;12.540;2022-10-16T05:45:59;14.00;98.10
40932;DHT22;36257;46.052;12.540;2022-10-16T05:48:25;14.00;98.20
40932;DHT22;36257;46.052;12.540;2022-10-16T05:51:06;14.00;98.40
40932;DHT22;36257;46.052;12.540;2022-10-16T05:53:36;14.00;98.40
40932;DHT22;36257;46.052;12.540;2022-10-16T05:56:03;14.00;98.30
40932;DHT22;36257;46.052;12.540;2022-10-16T05:58:39;14.10;98.10
40932;DHT22;36257;46.052;12.540;2022-10-16T06:01:11;14.00;98.30
40932;DHT22;36257;46.052;12.540;2022-10-16T06:03:36;14.00;98.30
40932;DHT22;36257;46.052;12.540;2022-10-16T06:06:13;14.00;98.50
40932;DHT22;36257;46.052;12.540;2022-10-16T06:08:41;14.00;98.60
40932;DHT22;36257;46.052;12.540;2022-10-16T06:11:10;14.10;98.30
40932;DHT22;36257;46.052;12.540;2022-10-16T06:13:36;14.10;98.20
40932;DHT22;36257;46.052;12.540;2022-10-16T06:16:03;14.20;98.30
40932;DHT22;36257;46.052;12.540;2022-10-16T06:18:29;14.30;97.90
40932;DHT22;36257;46.052;12.540;2022-10-16T06:20:56;14.30;97.80
40932;DHT22;36257;46.052;12.540;2022-10-16T06:23:23;14.30;97.60
40932;DHT22;36257;46.052;12.540;2022-10-16T06:25:49;14.30;97.80
40932;DHT22;36257;46.052;12.540;2022-10-16T06:28:15;14.30;98.00
40932;DHT22;36257;46.052;12.540;2022-10-16T06:30:41;14.30;98.00
40932;DHT22;36257;46.052;12.540;2022-10-16T06:33:10;14.30;98.20
40932;DHT22;36257;46.052;12.540;2022-10-16T06:35:35;14.40;98.20
40932;DHT22;36257;46.052;12.540;2022-10-16T06:38:01;14.40;98.30
40932;DHT22;36257;46.052;12.540;2022-10-16T06:40:27;14.50;98.10
40932;DHT22;36257;46.052;12.540;2022-10-16T06:42:55;14.50;98.20
40932;DHT22;36257;46.052;12.540;2022-10-16T06:45:20;14.50;98.20
40932;DHT22;36257;46.052;12.540;2022-10-16T06:47:46;14.60;98.40
40932;DHT22;36257;46.052;12.540;2022-10-16T06:50:12;14.60;98.50
40932;DHT22;36257;46.052;12.540;2022-10-16T06:52:37;14.70;98.50
40932;DHT22;36257;46.052;12.540;2022-10-16T06:55:03;14.80;98.50
40932;DHT22;36257;46.052;12.540;2022-10-16T06:57:29;14.80;98.50
40932;DHT22;36257;46.052;12.540;2022-10-16T06:59:54;14.90;98.50
40932;DHT22;36257;46.052;12.540;2022-10-16T07:02:20;15.00;98.30
40932;DHT22;36257;46.052;12.540;2022-10-16T07:04:45;15.10;98.40
40932;DHT22;36257;46.052;12.540;2022-10-16T07:07:11;15.20;98.40
40932;DHT22;36257;46.052;12.540;2022-10-16T07:09:37;15.40;98.40
40932;DHT22;36257;46.052;12.540;2022-10-16T07:12:02;15.50;98.10
40932;DHT22;36257;46.052;12.540;2022-10-16T07:14:28;15.60;98.00
40932;DHT22;36257;46.052;12.540;2022-10-16T07:16:55;15.70;98.20
40932;DHT22;36257;46.052;12.540;2022-10-16T07:19:21;15.90;97.60
40932;DHT22;36257;46.052;12.540;2022-10-16T07:21:46;16.00;97.10
40932;DHT22;36257;46.052;12.540;2022-10-16T07:24:15;16.20;96.60
40932;DHT22;36257;46.052;12.540;2022-10-16T07:26:41;16.40;95.60
40932;DHT22;36257;46.052;12.540;2022-10-16T07:29:16;16.60;94.60
40932;DHT22;36257;46.052;12.540;2022-10-16T07:31:43;16.80;93.40
40932;DHT22;36257;46.052;12.540;2022-10-16T07:34:10;17.00;92.40
40932;DHT22;36257;46.052;12.540;2022-10-16T07:36:36;17.20;91.40
40932;DHT22;36257;46.052;12.540;2022-10-16T07:39:01;17.40;90.90
40932;DHT22;36257;46.052;12.540;2022-10-16T07:41:27;17.50;90.40
40932;DHT22;36257;46.052;12.540;2022-10-16T07:43:53;17.60;90.00
40932;DHT22;36257;46.052;12.540;2022-10-16T07:46:21;17.70;90.90
40932;DHT22;36257;46.052;12.540;2022-10-16T07:48:47;17.90;90.80
40932;DHT22;36257;46.052;12.540;2022-10-16T07:51:15;18.10;91.90
40932;DHT22;36257;46.052;12.540;2022-10-16T07:53:41;18.30;89.60
40932;DHT22;36257;46.052;12.540;2022-10-16T07:56:07;18.50;89.70
40932;DHT22;36257;46.052;12.540;2022-10-16T07:58:34;18.60;89.10
40932;DHT22;36257;46.052;12.540;2022-10-16T08:01:10;18.80;90.00
40932;DHT22;36257;46.052;12.540;2022-10-16T08:03:36;18.90;89.70
40932;DHT22;36257;46.052;12.540;2022-10-16T08:06:03;19.10;88.70
40932;DHT22;36257;46.052;12.540;2022-10-16T08:08:29;19.20;88.60
40932;DHT22;36257;46.052;12.540;2022-10-16T08:10:55;19.30;88.90
40932;DHT22;36257;46.052;12.540;2022-10-16T08:13:21;19.50;89.00
40932;DHT22;36257;46.052;12.540;2022-10-16T08:15:47;19.70;88.50
40932;DHT22;36257;46.052;12.540;2022-10-16T08:18:14;19.90;88.50
40932;DHT22;36257;46.052;12.540;2022-10-16T08:20:41;20.10;86.50
40932;DHT22;36257;46.052;12.540;2022-10-16T08:23:07;20.20;86.70
40932;DHT22;36257;46.052;12.540;2022-10-16T08:25:35;20.40;86.30
40932;DHT22;36257;46.052;12.540;2022-10-16T08:28:04;20.50;85.70
40932;DHT22;36257;46.052;12.540;2022-10-16T08:30:30;20.60;85.10
40932;DHT22;36257;46.052;12.540;2022-10-16T08:32:55;20.70;85.00
40932;DHT22;36257;46.052;12.540;2022-10-16T08:35:21;20.80;84.20
40932;DHT22;36257;46.052;12.540;2022-10-16T08:37:46;21.00;84.50
40932;DHT22;36257;46.052;12.540;2022-10-16T08:40:30;21.00;83.10
40932;DHT22;36257;46.052;12.540;2022-10-16T08:48:39;21.50;82.50
40932;DHT22;36257;46.052;12.540;2022-10-16T08:51:08;21.70;83.00
40932;DHT22;36257;46.052;12.540;2022-10-16T08:53:52;21.80;81.70
40932;DHT22;36257;46.052;12.540;2022-10-16T08:56:18;21.90;82.10
40932;DHT22;36257;46.052;12.540;2022-10-16T08:58:45;22.00;80.20
40932;DHT22;36257;46.052;12.540;2022-10-16T09:01:12;22.00;81.30
40932;DHT22;36257;46.052;12.540;2022-10-16T09:12:16;22.40;79.10
40932;DHT22;36257;46.052;12.540;2022-10-16T09:18:34;22.90;76.50
40932;DHT22;36257;46.052;12.540;2022-10-16T09:23:28;22.70;79.50
40932;DHT22;36257;46.052;12.540;2022-10-16T09:25:55;22.80;77.90
40932;DHT22;36257;46.052;12.540;2022-10-16T09:28:21;23.00;77.90
40932;DHT22;36257;46.052;12.540;2022-10-16T09:30:48;23.10;77.50
40932;DHT22;36257;46.052;12.540;2022-10-16T09:33:16;23.30;77.80
40932;DHT22;36257;46.052;12.540;2022-10-16T09:35:44;23.50;77.70
40932;DHT22;36257;46.052;12.540;2022-10-16T09:38:30;23.70;76.60
40932;DHT22;36257;46.052;12.540;2022-10-16T09:40:58;23.80;76.40
40932;DHT22;36257;46.052;12.540;2022-10-16T09:43:46;23.90;77.30
40932;DHT22;36257;46.052;12.540;2022-10-16T09:46:28;24.10;75.00
40932;DHT22;36257;46.052;12.540;2022-10-16T09:49:16;24.00;76.20
40932;DHT22;36257;46.052;12.540;2022-10-16T09:51:43;24.10;77.40
40932;DHT22;36257;46.052;12.540;2022-10-16T09:56:36;24.30;75.40
40932;DHT22;36257;46.052;12.540;2022-10-16T09:59:18;24.40;75.90
40932;DHT22;36257;46.052;12.540;2022-10-16T10:01:52;24.30;75.90
40932;DHT22;36257;46.052;12.540;2022-10-16T10:04:19;24.20;76.30
40932;DHT22;36257;46.052;12.540;2022-10-16T10:06:52;24.30;75.20
40932;DHT22;36257;46.052;12.540;2022-10-16T10:11:54;24.40;74.90
40932;DHT22;36257;46.052;12.540;2022-10-16T10:14:35;24.40;74.10
40932;DHT22;36257;46.052;12.540;2022-10-16T10:19:38;24.30;76.30
40932;DHT22;36257;46.052;12.540;2022-10-16T10:33:42;23.10;79.20
40932;DHT22;36257;46.052;12.540;2022-10-16T10:38:58;22.70;80.70
40932;DHT22;36257;46.052;12.540;2022-10-16T10:50:44;22.10;82.70
40932;DHT22;36257;46.052;12.540;2022-10-16T11:08:01;22.00;83.40
40932;DHT22;36257;46.052;12.540;2022-10-16T11:10:33;22.00;83.40
40932;DHT22;36257;46.052;12.540;2022-10-16T11:13:21;22.00;82.80
40932;DHT22;36257;46.052;12.540;2022-10-16T11:15:51;21.90;83.10
40932;DHT22;36257;46.052;12.540;2022-10-16T11:18:27;21.90;83.10
40932;DHT22;36257;46.052;12.540;2022-10-16T11:21:04;21.90;83.30
40932;DHT22;36257;46.052;12.540;2022-10-16T11:23:50;21.80;83.30
40932;DHT22;36257;46.052;12.540;2022-10-16T11:26:21;21.70;84.70
40932;DHT22;36257;46.052;12.540;2022-10-16T11:28:51;21.70;84.20
40932;DHT22;36257;46.052;12.540;2022-10-16T11:31:46;21.70;84.00
40932;DHT22;36257;46.052;12.540;2022-10-16T11:34:38;21.70;84.50
40932;DHT22;36257;46.052;12.540;2022-10-16T11:37:35;21.80;84.50
40932;DHT22;36257;46.052;12.540;2022-10-16T11:40:25;21.70;84.10
40932;DHT22;36257;46.052;12.540;2022-10-16T11:43:32;21.70;84.20
40932;DHT22;36257;46.052;12.540;2022-10-16T11:46:08;21.70;83.80
40932;DHT22;36257;46.052;12.540;2022-10-16T11:48:43;21.60;83.80
40932;DHT22;36257;46.052;12.540;2022-10-16T11:51:19;21.60;84.70
40932;DHT22;36257;46.052;12.540;2022-10-16T11:54:07;21.60;85.30
40932;DHT22;36257;46.052;12.540;2022-10-16T11:56:37;21.50;84.10
40932;DHT22;36257;46.052;12.540;2022-10-16T12:05:24;21.40;85.30
40932;DHT22;36257;46.052;12.540;2022-10-16T12:08:09;21.40;85.40
40932;DHT22;36257;46.052;12.540;2022-10-16T12:10:38;21.40;86.40
40932;DHT22;36257;46.052;12.540;2022-10-16T12:13:37;21.40;85.40
40932;DHT22;36257;46.052;12.540;2022-10-16T12:18:30;21.20;86.10
40932;DHT22;36257;46.052;12.540;2022-10-16T12:20:59;21.20;86.10
40932;DHT22;36257;46.052;12.540;2022-10-16T12:23:53;21.20;86.00
40932;DHT22;36257;46.052;12.540;2022-10-16T12:26:26;21.20;86.30
40932;DHT22;36257;46.052;12.540;2022-10-16T12:28:53;21.30;86.50
40932;DHT22;36257;46.052;12.540;2022-10-16T12:31:19;21.30;86.70
40932;DHT22;36257;46.052;12.540;2022-10-16T12:34:01;21.30;86.00
40932;DHT22;36257;46.052;12.540;2022-10-16T12:36:32;21.30;85.10
40932;DHT22;36257;46.052;12.540;2022-10-16T12:39:01;21.20;86.10
40932;DHT22;36257;46.052;12.540;2022-10-16T12:41:30;21.10;85.40
40932;DHT22;36257;46.052;12.540;2022-10-16T12:43:57;21.00;86.20
40932;DHT22;36257;46.052;12.540;2022-10-16T12:46:44;21.00;86.00
40932;DHT22;36257;46.052;12.540;2022-10-16T12:51:37;21.00;87.20
40932;DHT22;36257;46.052;12.540;2022-10-16T12:57:04;21.10;87.10
40932;DHT22;36257;46.052;12.540;2022-10-16T13:16:33;21.00;87.10
40932;DHT22;36257;46.052;12.540;2022-10-16T13:19:15;21.00;87.30
40932;DHT22;36257;46.052;12.540;2022-10-16T13:24:30;21.00;87.70
40932;DHT22;36257;46.052;12.540;2022-10-16T13:27:18;21.10;88.00
40932;DHT22;36257;46.052;12.540;2022-10-16T13:29:53;21.00;87.40
40932;DHT22;36257;46.052;12.540;2022-10-16T13:32:21;21.00;87.70
40932;DHT22;36257;46.052;12.540;2022-10-16T13:34:48;21.00;87.70
40932;DHT22;36257;46.052;12.540;2022-10-16T13:37:25;21.00;87.80
40932;DHT22;36257;46.052;12.540;2022-10-16T13:39:51;21.00;87.10
40932;DHT22;36257;46.052;12.540;2022-10-16T13:42:28;21.00;87.60
40932;DHT22;36257;46.052;12.540;2022-10-16T13:44:54;21.00;88.00
40932;DHT22;36257;46.052;12.540;2022-10-16T13:47:24;20.90;88.00
40932;DHT22;36257;46.052;12.540;2022-10-16T13:50:02;20.90;88.10
40932;DHT22;36257;46.052;12.540;2022-10-16T13:52:29;21.00;87.70
40932;DHT22;36257;46.052;12.540;2022-10-16T13:54:55;21.00;87.20
40932;DHT22;36257;46.052;12.540;2022-10-16T13:57:23;21.00;87.80
40932;DHT22;36257;46.052;12.540;2022-10-16T13:59:50;21.00;87.60
40932;DHT22;36257;46.052;12.540;2022-10-16T14:02:25;21.10;87.70
40932;DHT22;36257;46.052;12.540;2022-10-16T14:04:52;21.10;86.90
40932;DHT22;36257;46.052;12.540;2022-10-16T14:07:25;21.10;86.30
40932;DHT22;36257;46.052;12.540;2022-10-16T14:09:52;21.10;85.90
40932;DHT22;36257;46.052;12.540;2022-10-16T14:12:19;21.20;85.90
40932;DHT22;36257;46.052;12.540;2022-10-16T14:14:47;21.10;85.70
40932;DHT22;36257;46.052;12.540;2022-10-16T14:17:15;21.00;86.00
40932;DHT22;36257;46.052;12.540;2022-10-16T14:19:47;21.10;85.90
40932;DHT22;36257;46.052;12.540;2022-10-16T14:22:38;21.10;86.90
40932;DHT22;36257;46.052;12.540;2022-10-16T14:30:26;21.20;85.80
40932;DHT22;36257;46.052;12.540;2022-10-16T14:33:05;21.30;85.80
40932;DHT22;36257;46.052;12.540;2022-10-16T14:35:33;21.30;84.50
40932;DHT22;36257;46.052;12.540;2022-10-16T14:38:01;21.30;84.00
40932;DHT22;36257;46.052;12.540;2022-10-16T14:40:30;21.30;84.50
40932;DHT22;36257;46.052;12.540;2022-10-16T14:43:00;21.30;86.40
40932;DHT22;36257;46.052;12.540;2022-10-16T14:45:29;21.30;85.70
40932;DHT22;36257;46.052;12.540;2022-10-16T14:47:57;21.30;85.50
40932;DHT22;36257;46.052;12.540;2022-10-16T14:50:24;21.30;85.50
40932;DHT22;36257;46.052;12.540;2022-10-16T14:52:50;21.30;86.00
40932;DHT22;36257;46.052;12.540;2022-10-16T14:55:16;21.30;85.50
40932;DHT22;36257;46.052;12.540;2022-10-16T14:57:43;21.30;85.70
40932;DHT22;36257;46.052;12.540;2022-10-16T15:00:20;21.30;85.70
40932;DHT22;36257;46.052;12.540;2022-10-16T15:02:47;21.20;86.40
40932;DHT22;36257;46.052;12.540;2022-10-16T15:05:17;21.20;86.50
40932;DHT22;36257;46.052;12.540;2022-10-16T15:07:43;21.20;86.20
40932;DHT22;36257;46.052;12.540;2022-10-16T15:10:16;21.10;86.70
40932;DHT22;36257;46.052;12.540;2022-10-16T15:12:43;21.10;86.90
40932;DHT22;36257;46.052;12.540;2022-10-16T15:15:33;21.10;87.10
40932;DHT22;36257;46.052;12.540;2022-10-16T15:18:00;21.00;87.20
40932;DHT22;36257;46.052;12.540;2022-10-16T15:20:28;21.00;87.20
40932;DHT22;36257;46.052;12.540;2022-10-16T15:22:56;20.90;87.80
40932;DHT22;36257;46.052;12.540;2022-10-16T15:25:34;20.90;88.00
40932;DHT22;36257;46.052;12.540;2022-10-16T15:28:02;20.80;88.50
40932;DHT22;36257;46.052;12.540;2022-10-16T15:30:29;20.80;88.40
40932;DHT22;36257;46.052;12.540;2022-10-16T15:32:55;20.80;88.50
40932;DHT22;36257;46.052;12.540;2022-10-16T15:35:21;20.80;89.40
40932;DHT22;36257;46.052;12.540;2022-10-16T15:37:48;20.70;89.00
40932;DHT22;36257;46.052;12.540;2022-10-16T15:40:15;20.70;89.00
40932;DHT22;36257;46.052;12.540;2022-10-16T15:42:41;20.60;89.10
40932;DHT22;36257;46.052;12.540;2022-10-16T15:45:09;20.60;89.40
40932;DHT22;36257;46.052;12.540;2022-10-16T15:47:36;20.60;89.40
40932;DHT22;36257;46.052;12.540;2022-10-16T15:50:01;20.50;89.60
40932;DHT22;36257;46.052;12.540;2022-10-16T15:52:27;20.40;89.90
40932;DHT22;36257;46.052;12.540;2022-10-16T15:54:54;20.30;90.20
40932;DHT22;36257;46.052;12.540;2022-10-16T15:57:20;20.20;91.20
40932;DHT22;36257;46.052;12.540;2022-10-16T15:59:45;20.10;91.50
40932;DHT22;36257;46.052;12.540;2022-10-16T16:02:11;20.10;92.00
40932;DHT22;36257;46.052;12.540;2022-10-16T16:04:37;20.10;92.30
40932;DHT22;36257;46.052;12.540;2022-10-16T16:07:02;20.00;92.60
40932;DHT22;36257;46.052;12.540;2022-10-16T16:09:31;20.00;92.90
40932;DHT22;36257;46.052;12.540;2022-10-16T16:11:57;20.00;92.90
40932;DHT22;36257;46.052;12.540;2022-10-16T16:14:25;20.00;92.90
40932;DHT22;36257;46.052;12.540;2022-10-16T16:16:53;20.00;93.10
40932;DHT22;36257;46.052;12.540;2022-10-16T16:19:19;19.90;93.30
40932;DHT22;36257;46.052;12.540;2022-10-16T16:21:46;19.80;93.40
40932;DHT22;36257;46.052;12.540;2022-10-16T16:24:12;19.80;93.60
40932;DHT22;36257;46.052;12.540;2022-10-16T16:26:38;19.70;93.80
40932;DHT22;36257;46.052;12.540;2022-10-16T16:29:05;19.60;94.00
40932;DHT22;36257;46.052;12.540;2022-10-16T16:31:37;19.60;94.40
40932;DHT22;36257;46.052;12.540;2022-10-16T16:34:03;19.50;94.60
40932;DHT22;36257;46.052;12.540;2022-10-16T16:36:28;19.40;94.70
40932;DHT22;36257;46.052;12.540;2022-10-16T16:38:54;19.40;95.00
40932;DHT22;36257;46.052;12.540;2022-10-16T16:41:26;19.30;95.10
40932;DHT22;36257;46.052;12.540;2022-10-16T16:43:54;19.20;95.30
40932;DHT22;36257;46.052;12.540;2022-10-16T16:46:20;19.20;95.20
40932;DHT22;36257;46.052;12.540;2022-10-16T16:48:48;19.10;95.10
40932;DHT22;36257;46.052;12.540;2022-10-16T16:51:17;19.10;95.00
40932;DHT22;36257;46.052;12.540;2022-10-16T16:53:50;18.90;95.20
40932;DHT22;36257;46.052;12.540;2022-10-16T16:56:17;18.80;95.50
40932;DHT22;36257;46.052;12.540;2022-10-16T16:58:48;18.60;96.00
40932;DHT22;36257;46.052;12.540;2022-10-16T17:01:14;18.50;96.20
40932;DHT22;36257;46.052;12.540;2022-10-16T17:03:42;18.40;96.50
40932;DHT22;36257;46.052;12.540;2022-10-16T17:06:12;18.40;96.40
40932;DHT22;36257;46.052;12.540;2022-10-16T17:08:38;18.30;96.50
40932;DHT22;36257;46.052;12.540;2022-10-16T17:11:05;18.20;96.90
40932;DHT22;36257;46.052;12.540;2022-10-16T17:13:33;18.10;97.10
40932;DHT22;36257;46.052;12.540;2022-10-16T17:16:05;18.00;97.10
40932;DHT22;36257;46.052;12.540;2022-10-16T17:18:31;18.00;96.80
40932;DHT22;36257;46.052;12.540;2022-10-16T17:21:05;18.00;96.30